createdAt,value
2019-03-23T00:01:30.750Z,99.90
2019-03-23T00:04:01.331Z,99.90
2019-03-23T00:06:31.587Z,99.90
2019-03-23T00:09:02.178Z,99.90
2019-03-23T00:11:34.097Z,99.90
2019-03-23T00:14:05.068Z,99.90
2019-03-23T00:16:35.442Z,99.90
2019-03-23T00:19:05.834Z,99.90
2019-03-23T00:21:36.766Z,99.90
2019-03-23T00:24:07.691Z,99.90
2019-03-23T00:26:38.357Z,99.90
2019-03-23T00:29:08.994Z,99.90
2019-03-23T00:31:39.664Z,99.90
2019-03-23T00:34:10.570Z,99.90
2019-03-23T00:36:42.009Z,99.90
2019-03-23T00:39:12.502Z,99.90
2019-03-23T00:41:42.904Z,99.90
2019-03-23T00:44:13.278Z,99.90
2019-03-23T00:46:43.683Z,99.90
2019-03-23T00:49:14.629Z,99.90
2019-03-23T00:51:45.010Z,99.90
2019-03-23T00:54:15.935Z,99.90
2019-03-23T00:56:46.391Z,99.90
2019-03-23T00:59:17.072Z,99.90
2019-03-23T01:01:47.461Z,99.90
2019-03-23T01:04:18.081Z,99.90
2019-03-23T01:06:52.295Z,99.90
2019-03-23T01:09:20.478Z,99.90
2019-03-23T01:11:50.873Z,99.90
2019-03-23T01:14:21.162Z,99.90
2019-03-23T01:16:51.573Z,99.90
2019-03-23T01:19:21.967Z,99.90
2019-03-23T01:21:52.349Z,99.90
2019-03-23T01:24:22.721Z,99.90
2019-03-23T01:26:53.095Z,99.90
2019-03-23T01:29:23.719Z,99.90
2019-03-23T01:31:54.662Z,99.90
2019-03-23T01:34:25.796Z,99.90
2019-03-23T01:37:02.789Z,99.90
2019-03-23T01:39:29.017Z,99.90
2019-03-23T01:41:59.938Z,99.90
2019-03-23T01:44:31.175Z,99.90
2019-03-23T01:47:01.907Z,99.90
2019-03-23T01:49:32.838Z,99.90
2019-03-23T01:52:04.083Z,99.90
2019-03-23T01:54:34.989Z,99.90
2019-03-23T01:57:05.805Z,99.90
2019-03-23T01:59:36.978Z,99.90
2019-03-23T02:02:07.556Z,99.90
2019-03-23T02:04:38.459Z,99.90
2019-03-23T02:07:13.747Z,99.90
2019-03-23T02:09:42.322Z,99.90
2019-03-23T02:12:16.409Z,99.90
2019-03-23T02:14:47.636Z,99.90
2019-03-23T02:17:18.872Z,99.90
2019-03-23T02:19:50.072Z,99.90
2019-03-23T02:22:21.283Z,99.90
2019-03-23T02:24:51.651Z,99.90
2019-03-23T02:27:23.034Z,99.90
2019-03-23T02:29:53.893Z,99.90
2019-03-23T02:32:24.569Z,99.90
2019-03-23T02:34:55.216Z,99.90
2019-03-23T02:37:27.890Z,99.90
2019-03-23T02:39:58.681Z,99.90
2019-03-23T02:42:28.965Z,99.90
2019-03-23T02:44:59.153Z,99.90
2019-03-23T02:47:29.413Z,99.90
2019-03-23T02:49:59.660Z,99.90
2019-03-23T02:52:30.431Z,99.90
2019-03-23T02:55:01.356Z,99.90
2019-03-23T02:57:31.759Z,99.90
2019-03-23T03:00:02.124Z,99.90
2019-03-23T03:02:32.583Z,99.90
2019-03-23T03:05:03.523Z,99.90
2019-03-23T03:07:41.801Z,99.90
2019-03-23T03:10:06.952Z,99.90
2019-03-23T03:12:37.406Z,99.90
2019-03-23T03:15:08.719Z,99.90
2019-03-23T03:17:39.402Z,99.90
2019-03-23T03:20:28.918Z,99.90
2019-03-23T03:22:59.542Z,99.90
2019-03-23T03:25:30.015Z,99.90
2019-03-23T03:28:00.652Z,99.90
2019-03-23T03:30:31.996Z,99.90
2019-03-23T03:33:02.448Z,99.90
2019-03-23T03:35:33.651Z,99.90
2019-03-23T03:38:04.499Z,99.90
2019-03-23T03:40:35.122Z,99.90
2019-03-23T03:43:05.535Z,99.90
2019-03-23T03:45:35.907Z,99.90
2019-03-23T03:48:06.310Z,99.90
2019-03-23T03:50:36.683Z,99.90
2019-03-23T03:53:07.122Z,99.90
2019-03-23T03:55:37.615Z,99.90
2019-03-23T03:58:08.327Z,99.90
2019-03-23T04:00:39.012Z,99.90
2019-03-23T04:03:10.234Z,99.90
2019-03-23T04:05:40.501Z,99.90
2019-03-23T04:08:12.038Z,99.90
2019-03-23T04:10:42.847Z,99.90
2019-03-23T04:13:13.219Z,99.90
2019-03-23T04:15:44.345Z,99.90
2019-03-23T04:18:15.487Z,99.90
2019-03-23T04:20:46.368Z,99.90
2019-03-23T04:23:17.020Z,99.90
2019-03-23T04:25:48.238Z,99.90
2019-03-23T04:28:18.678Z,99.90
2019-03-23T04:30:49.255Z,99.90
2019-03-23T04:33:19.805Z,99.90
2019-03-23T04:35:50.505Z,99.90
2019-03-23T04:38:22.983Z,99.90
2019-03-23T04:40:53.876Z,99.90
2019-03-23T04:43:24.448Z,99.90
2019-03-23T04:45:55.382Z,99.90
2019-03-23T04:48:26.201Z,99.90
2019-03-23T04:50:57.158Z,99.90
2019-03-23T04:53:27.878Z,99.90
2019-03-23T04:55:58.179Z,99.90
2019-03-23T04:58:28.968Z,99.90
2019-03-23T05:00:59.357Z,99.90
2019-03-23T05:03:29.782Z,99.90
2019-03-23T05:06:00.427Z,99.90
2019-03-23T05:08:33.518Z,99.90
2019-03-23T05:11:04.625Z,99.90
2019-03-23T05:13:35.751Z,99.90
2019-03-23T05:16:06.083Z,99.90
2019-03-23T05:18:36.707Z,99.90
2019-03-23T05:21:07.097Z,99.90
2019-03-23T05:23:39.926Z,99.90
2019-03-23T05:26:10.579Z,99.90
2019-03-23T05:28:41.284Z,99.90
2019-03-23T05:31:11.951Z,99.90
2019-03-23T05:33:43.025Z,99.90
2019-03-23T05:36:15.407Z,99.90
2019-03-23T05:38:45.935Z,99.90
2019-03-23T05:41:16.702Z,99.90
2019-03-23T05:43:47.051Z,99.90
2019-03-23T05:46:17.430Z,99.90
2019-03-23T05:48:47.810Z,99.90
2019-03-23T05:51:18.451Z,99.90
2019-03-23T05:53:48.866Z,99.90
2019-03-23T05:56:19.258Z,99.90
2019-03-23T05:58:49.902Z,99.90
2019-03-23T06:01:20.199Z,99.90
2019-03-23T06:03:50.621Z,99.90
2019-03-23T06:06:21.035Z,99.90
2019-03-23T06:08:55.311Z,99.90
2019-03-23T06:11:23.886Z,99.90
2019-03-23T06:13:54.322Z,99.90
2019-03-23T06:16:24.718Z,99.90
2019-03-23T06:18:55.123Z,99.90
2019-03-23T06:21:25.622Z,99.90
2019-03-23T06:23:56.008Z,99.90
2019-03-23T06:26:26.306Z,99.90
2019-03-23T06:28:56.694Z,99.90
2019-03-23T06:31:27.368Z,99.90
2019-03-23T06:33:57.684Z,99.90
2019-03-23T06:36:28.104Z,99.90
2019-03-23T06:39:05.332Z,99.90
2019-03-23T06:41:32.724Z,99.90
2019-03-23T06:44:05.433Z,99.90
2019-03-23T06:46:36.082Z,99.90
2019-03-23T06:49:06.434Z,99.90
2019-03-23T06:51:37.025Z,99.90
2019-03-23T06:54:07.842Z,99.90
2019-03-23T06:56:44.374Z,99.90
2019-03-23T06:59:15.329Z,99.90
2019-03-23T07:01:46.285Z,99.90
2019-03-23T07:04:17.103Z,99.90
2019-03-23T07:09:41.821Z,99.90
2019-03-23T07:12:14.846Z,99.90
2019-03-23T07:18:00.055Z,99.90
2019-03-23T07:20:30.391Z,99.90
2019-03-23T07:23:00.678Z,99.90
2019-03-23T07:25:33.699Z,99.90
2019-03-23T07:28:04.366Z,99.90
2019-03-23T07:30:35.122Z,99.90
2019-03-23T07:33:05.646Z,99.90
2019-03-23T07:35:35.994Z,99.90
2019-03-23T07:38:06.630Z,99.90
2019-03-23T07:40:37.320Z,99.90
2019-03-23T07:43:18.071Z,99.90
2019-03-23T07:45:49.727Z,99.90
2019-03-23T07:52:01.250Z,99.90
2019-03-23T07:54:31.559Z,99.90
2019-03-23T07:57:02.110Z,99.90
2019-03-23T07:59:32.518Z,99.90
2019-03-23T08:02:24.776Z,99.90
2019-03-23T08:05:00.340Z,99.90
2019-03-23T08:07:30.718Z,99.90
2019-03-23T08:10:06.361Z,99.90
2019-03-23T08:15:29.198Z,99.90
2019-03-23T08:18:01.210Z,99.90
2019-03-23T08:20:31.530Z,99.90
2019-03-23T08:23:02.037Z,99.90
2019-03-23T08:25:33.537Z,99.90
2019-03-23T08:28:03.939Z,99.90
2019-03-23T08:30:34.386Z,98.80
2019-03-23T08:33:04.798Z,94.00
2019-03-23T08:35:40.921Z,90.20
2019-03-23T08:38:12.270Z,85.30
2019-03-23T08:40:42.933Z,78.80
2019-03-23T08:43:13.490Z,76.80
2019-03-23T08:45:44.893Z,76.20
2019-03-23T08:48:15.526Z,73.50
2019-03-23T08:50:49.304Z,71.40
2019-03-23T08:53:19.656Z,69.30
2019-03-23T08:55:50.685Z,69.80
2019-03-23T08:58:28.976Z,67.50
2019-03-23T09:01:00.323Z,64.30
2019-03-23T09:03:30.702Z,65.00
2019-03-23T09:06:01.086Z,63.90
2019-03-23T09:08:31.478Z,63.00
2019-03-23T09:11:01.936Z,61.90
2019-03-23T09:13:40.526Z,61.00
2019-03-23T09:16:04.992Z,62.20
2019-03-23T09:18:35.666Z,59.80
2019-03-23T09:21:06.156Z,60.30
2019-03-23T09:23:37.139Z,59.90
2019-03-23T09:26:07.535Z,58.60
2019-03-23T09:28:38.213Z,57.70
2019-03-23T09:31:09.160Z,57.90
2019-03-23T09:33:39.852Z,57.70
2019-03-23T09:36:10.246Z,56.50
2019-03-23T09:38:41.515Z,54.30
2019-03-23T09:41:12.418Z,54.20
2019-03-23T09:43:42.882Z,54.00
2019-03-23T09:46:13.546Z,53.30
2019-03-23T09:48:46.972Z,53.10
2019-03-23T09:51:17.552Z,52.50
2019-03-23T09:53:48.738Z,53.20
2019-03-23T09:56:19.190Z,52.70
2019-03-23T09:59:08.477Z,51.40
2019-03-23T10:01:38.918Z,51.30
2019-03-23T10:04:09.370Z,51.40
2019-03-23T10:06:39.834Z,51.50
2019-03-23T10:09:11.271Z,52.60
2019-03-23T10:11:42.452Z,52.10
2019-03-23T10:14:13.142Z,52.50
2019-03-23T10:16:43.630Z,50.60
2019-03-23T10:19:14.307Z,49.00
2019-03-23T10:21:44.739Z,49.80
2019-03-23T10:24:15.142Z,49.90
2019-03-23T10:26:45.683Z,50.90
2019-03-23T10:29:16.150Z,50.50
2019-03-23T10:31:46.698Z,50.90
2019-03-23T10:34:17.074Z,49.90
2019-03-23T10:36:47.784Z,50.50
2019-03-23T10:39:18.450Z,49.70
2019-03-23T10:41:48.935Z,49.60
2019-03-23T10:44:19.424Z,49.30
2019-03-23T10:46:50.124Z,49.60
2019-03-23T10:49:20.655Z,48.00
2019-03-23T10:51:51.245Z,49.90
2019-03-23T10:54:22.683Z,49.30
2019-03-23T10:56:53.574Z,50.10
2019-03-23T10:59:24.893Z,50.90
2019-03-23T11:01:55.325Z,50.60
2019-03-23T11:04:25.829Z,48.50
2019-03-23T11:06:56.237Z,49.90
2019-03-23T11:09:26.711Z,49.50
2019-03-23T11:11:57.106Z,50.00
2019-03-23T11:14:28.083Z,50.20
2019-03-23T11:16:58.894Z,50.40
2019-03-23T11:19:29.431Z,49.60
2019-03-23T11:21:59.842Z,48.90
2019-03-23T11:24:30.223Z,50.10
2019-03-23T11:27:01.095Z,49.90
2019-03-23T11:29:31.851Z,49.50
2019-03-23T11:32:02.908Z,48.00
2019-03-23T11:34:33.596Z,47.20
2019-03-23T11:37:04.391Z,47.90
2019-03-23T11:39:35.244Z,47.50
2019-03-23T11:42:05.755Z,48.10
2019-03-23T11:44:36.233Z,49.00
2019-03-23T11:47:06.773Z,48.70
2019-03-23T11:49:37.242Z,48.00
2019-03-23T11:52:07.663Z,48.20
2019-03-23T11:54:38.384Z,47.00
2019-03-23T11:57:08.716Z,48.50
2019-03-23T11:59:39.200Z,47.60
2019-03-23T12:02:09.718Z,47.30
2019-03-23T12:04:40.203Z,47.40
2019-03-23T12:07:10.983Z,44.70
2019-03-23T12:09:41.379Z,47.20
2019-03-23T12:12:12.043Z,45.60
2019-03-23T12:14:42.526Z,46.20
2019-03-23T12:17:12.954Z,46.10
2019-03-23T12:19:43.652Z,44.80
2019-03-23T12:22:14.356Z,46.10
2019-03-23T12:24:45.054Z,47.70
2019-03-23T12:27:15.362Z,46.20
2019-03-23T12:29:46.086Z,44.90
2019-03-23T12:32:16.527Z,46.70
2019-03-23T12:34:46.970Z,45.40
2019-03-23T12:37:17.446Z,45.40
2019-03-23T12:39:47.820Z,44.80
2019-03-23T12:42:18.550Z,44.30
2019-03-23T12:44:49.183Z,46.80
2019-03-23T12:47:19.574Z,47.00
2019-03-23T12:49:50.105Z,45.60
2019-03-23T12:52:20.535Z,43.80
2019-03-23T12:54:50.894Z,45.00
2019-03-23T12:57:21.391Z,46.10
2019-03-23T12:59:52.175Z,45.80
2019-03-23T13:02:22.625Z,45.90
2019-03-23T13:04:53.029Z,47.40
2019-03-23T13:07:23.499Z,45.60
2019-03-23T13:09:54.147Z,46.40
2019-03-23T13:12:24.931Z,46.60
2019-03-23T13:14:56.169Z,46.50
2019-03-23T13:17:26.951Z,46.90
2019-03-23T13:19:57.436Z,46.90
2019-03-23T13:22:28.000Z,46.50
2019-03-23T13:25:00.567Z,46.60
2019-03-23T13:27:31.094Z,46.60
2019-03-23T13:30:04.551Z,46.10
2019-03-23T13:32:35.287Z,46.20
2019-03-23T13:35:06.194Z,46.60
2019-03-23T13:37:36.638Z,46.30
2019-03-23T13:40:08.503Z,45.80
2019-03-23T13:42:39.009Z,46.10
2019-03-23T13:45:09.678Z,44.80
2019-03-23T13:47:40.203Z,44.30
2019-03-23T13:50:11.034Z,45.10
2019-03-23T13:52:41.469Z,47.40
2019-03-23T13:55:25.762Z,47.40
2019-03-23T13:57:56.308Z,48.10
2019-03-23T14:00:26.775Z,46.80
2019-03-23T14:02:57.230Z,47.50
2019-03-23T14:05:27.647Z,49.40
2019-03-23T14:07:58.193Z,50.30
2019-03-23T14:10:28.711Z,49.50
2019-03-23T14:12:59.114Z,49.60
2019-03-23T14:15:29.518Z,50.30
2019-03-23T14:18:00.055Z,49.30
2019-03-23T14:20:30.547Z,49.50
2019-03-23T14:23:02.870Z,49.50
2019-03-23T14:25:33.158Z,50.40
2019-03-23T14:28:04.531Z,48.70
2019-03-23T14:30:34.939Z,49.20
2019-03-23T14:33:25.055Z,49.20
2019-03-23T14:35:55.562Z,49.40
2019-03-23T14:38:26.586Z,49.30
2019-03-23T14:40:56.995Z,48.70
2019-03-23T14:43:27.402Z,47.20
2019-03-23T14:45:58.100Z,46.00
2019-03-23T14:48:28.508Z,46.40
2019-03-23T14:50:59.224Z,46.50
2019-03-23T14:53:30.139Z,46.30
2019-03-23T14:56:00.986Z,46.60
2019-03-23T14:58:31.734Z,45.80
2019-03-23T15:01:02.207Z,45.20
2019-03-23T15:03:32.632Z,45.30
2019-03-23T15:06:03.028Z,44.90
2019-03-23T15:08:33.467Z,44.40
2019-03-23T15:11:04.164Z,44.90
2019-03-23T15:13:35.737Z,43.90
2019-03-23T15:16:06.206Z,45.10
2019-03-23T15:18:37.191Z,46.20
2019-03-23T15:21:07.794Z,47.00
2019-03-23T15:23:38.600Z,48.30
2019-03-23T15:26:09.296Z,47.70
2019-03-23T15:28:39.762Z,45.70
2019-03-23T15:31:10.202Z,45.40
2019-03-23T15:33:40.657Z,47.30
2019-03-23T15:36:11.127Z,47.80
2019-03-23T15:38:41.581Z,48.30
2019-03-23T15:41:12.190Z,49.20
2019-03-23T15:43:42.690Z,50.50
2019-03-23T15:46:13.287Z,51.60
2019-03-23T15:48:43.800Z,52.40
2019-03-23T15:51:14.298Z,52.70
2019-03-23T15:53:44.794Z,53.20
2019-03-23T15:56:15.250Z,52.70
2019-03-23T15:58:45.643Z,52.40
2019-03-23T16:01:16.128Z,52.80
2019-03-23T16:03:46.573Z,52.10
2019-03-23T16:06:17.066Z,52.80
2019-03-23T16:08:48.023Z,53.40
2019-03-23T16:11:19.255Z,53.90
2019-03-23T16:13:50.252Z,54.20
2019-03-23T16:16:20.743Z,53.90
2019-03-23T16:18:51.167Z,54.20
2019-03-23T16:21:21.637Z,54.50
2019-03-23T16:23:52.135Z,54.80
2019-03-23T16:26:22.593Z,55.40
2019-03-23T16:28:53.011Z,55.60
2019-03-23T16:31:23.414Z,55.80
2019-03-23T16:33:53.837Z,56.00
2019-03-23T16:36:24.304Z,56.30
2019-03-23T16:38:54.999Z,56.20
2019-03-23T16:41:25.518Z,56.00
2019-03-23T16:43:56.249Z,56.00
2019-03-23T16:46:26.672Z,55.50
2019-03-23T16:48:57.118Z,55.40
2019-03-23T16:51:27.552Z,55.80
2019-03-23T16:53:58.503Z,56.00
2019-03-23T16:56:29.462Z,56.50
2019-03-23T16:59:00.262Z,56.80
2019-03-23T17:01:32.916Z,57.00
2019-03-23T17:04:04.226Z,57.60
2019-03-23T17:06:34.882Z,57.90
2019-03-23T17:09:06.925Z,58.60
2019-03-23T17:11:37.594Z,59.50
2019-03-23T17:14:08.094Z,59.80
2019-03-23T17:16:38.558Z,60.90
2019-03-23T17:19:08.963Z,61.20
2019-03-23T17:21:39.389Z,62.00
2019-03-23T17:24:09.886Z,62.80
2019-03-23T17:26:40.322Z,63.30
2019-03-23T17:29:10.735Z,63.70
2019-03-23T17:31:41.181Z,64.50
2019-03-23T17:34:11.650Z,64.90
2019-03-23T17:36:42.078Z,65.70
2019-03-23T17:39:13.048Z,66.40
2019-03-23T17:41:43.467Z,66.80
2019-03-23T17:44:14.214Z,67.10
2019-03-23T17:46:44.929Z,67.60
2019-03-23T17:49:15.919Z,68.30
2019-03-23T17:51:46.677Z,68.50
2019-03-23T17:54:17.871Z,68.90
2019-03-23T17:56:48.338Z,68.90
2019-03-23T17:59:19.098Z,69.40
2019-03-23T18:01:49.683Z,70.30
2019-03-23T18:04:20.167Z,71.00
2019-03-23T18:06:50.498Z,71.30
2019-03-23T18:09:20.895Z,72.90
2019-03-23T18:11:51.308Z,73.80
2019-03-23T18:14:21.993Z,74.70
2019-03-23T18:16:52.418Z,75.40
2019-03-23T18:19:23.148Z,76.50
2019-03-23T18:21:53.658Z,76.60
2019-03-23T18:24:24.096Z,77.30
2019-03-23T18:26:54.526Z,77.50
2019-03-23T18:29:25.194Z,78.40
2019-03-23T18:31:56.224Z,79.70
2019-03-23T18:34:26.547Z,80.80
2019-03-23T18:36:57.275Z,80.70
2019-03-23T18:39:27.662Z,81.00
2019-03-23T18:41:58.142Z,81.80
2019-03-23T18:44:29.175Z,82.00
2019-03-23T18:47:00.172Z,83.30
2019-03-23T18:49:30.931Z,84.20
2019-03-23T18:52:01.622Z,84.70
2019-03-23T18:54:32.059Z,84.90
2019-03-23T18:57:02.468Z,85.40
2019-03-23T18:59:32.971Z,86.40
2019-03-23T19:02:03.376Z,86.00
2019-03-23T19:04:34.267Z,86.70
2019-03-23T19:07:04.938Z,87.20
2019-03-23T19:09:35.444Z,88.20
2019-03-23T19:12:06.444Z,88.80
2019-03-23T19:14:37.085Z,90.20
2019-03-23T19:17:07.548Z,91.10
2019-03-23T19:19:38.264Z,91.50
2019-03-23T19:22:08.668Z,92.10
2019-03-23T19:24:39.095Z,92.50
2019-03-23T19:27:09.573Z,92.70
2019-03-23T19:29:40.340Z,93.80
2019-03-23T19:32:10.743Z,93.80
2019-03-23T19:34:41.180Z,94.30
2019-03-23T19:37:11.626Z,94.50
2019-03-23T19:39:42.343Z,94.70
2019-03-23T19:42:13.101Z,95.00
2019-03-23T19:44:43.786Z,95.60
2019-03-23T19:47:14.472Z,96.20
2019-03-23T19:49:44.909Z,96.80
2019-03-23T19:52:15.327Z,97.80
2019-03-23T19:54:46.575Z,98.20
2019-03-23T19:57:17.468Z,99.20
2019-03-23T19:59:48.118Z,99.80
2019-03-23T20:02:18.915Z,99.90
2019-03-23T20:04:49.594Z,99.90
2019-03-23T20:07:20.322Z,99.90
2019-03-23T20:09:51.099Z,99.90
2019-03-23T20:12:21.782Z,99.90
2019-03-23T20:14:52.297Z,99.90
2019-03-23T20:17:22.764Z,99.90
2019-03-23T20:19:53.178Z,99.90
2019-03-23T20:22:23.563Z,99.90
2019-03-23T20:24:54.538Z,99.90
2019-03-23T20:27:25.393Z,99.90
2019-03-23T20:29:57.099Z,99.90
2019-03-23T20:32:27.784Z,99.90
2019-03-23T20:34:58.815Z,99.90
2019-03-23T20:37:29.911Z,99.90
2019-03-23T20:40:00.649Z,99.90
2019-03-23T20:42:31.152Z,99.90
2019-03-23T20:45:01.604Z,99.90
2019-03-23T20:47:32.539Z,99.90
2019-03-23T20:50:03.041Z,99.90
2019-03-23T20:52:34.747Z,99.90
2019-03-23T20:55:05.846Z,99.90
2019-03-23T20:57:37.615Z,99.90
2019-03-23T21:00:08.817Z,99.90
2019-03-23T21:02:39.289Z,99.90
2019-03-23T21:05:12.321Z,99.90
2019-03-23T21:07:42.799Z,99.90
2019-03-23T21:10:13.207Z,99.90
2019-03-23T21:12:44.026Z,99.90
2019-03-23T21:15:14.863Z,99.90
2019-03-23T21:17:51.128Z,99.90
2019-03-23T21:20:17.451Z,99.90
2019-03-23T21:22:47.870Z,99.90
2019-03-23T21:25:18.320Z,99.90
2019-03-23T21:27:48.710Z,99.90
2019-03-23T21:30:19.410Z,99.90
2019-03-23T21:32:49.917Z,99.90
2019-03-23T21:35:20.398Z,99.90
2019-03-23T21:37:51.180Z,99.90
2019-03-23T21:40:21.999Z,99.90
2019-03-23T21:42:52.713Z,99.90
2019-03-23T21:45:23.701Z,99.90
2019-03-23T21:47:54.954Z,99.90
2019-03-23T21:50:25.363Z,99.90
2019-03-23T21:52:56.018Z,99.90
2019-03-23T21:55:26.435Z,99.90
2019-03-23T21:57:57.079Z,99.90
2019-03-23T22:00:35.017Z,99.90
2019-03-23T22:03:05.479Z,99.90
2019-03-23T22:05:36.267Z,99.90
2019-03-23T22:08:07.144Z,99.90
2019-03-23T22:10:37.662Z,99.90
2019-03-23T22:13:08.661Z,99.90
2019-03-23T22:15:39.619Z,99.90
2019-03-23T22:18:10.870Z,99.90
2019-03-23T22:20:41.580Z,99.90
2019-03-23T22:23:12.335Z,99.90
2019-03-23T22:25:43.060Z,99.90
2019-03-23T22:28:13.763Z,99.90
2019-03-23T22:30:44.487Z,99.90
2019-03-23T22:33:16.746Z,99.90
2019-03-23T22:35:47.226Z,99.90
2019-03-23T22:38:17.619Z,99.90
2019-03-23T22:40:48.290Z,99.90
2019-03-23T22:43:19.443Z,99.90
2019-03-23T22:46:09.258Z,99.90
2019-03-23T22:48:39.962Z,99.90
2019-03-23T22:51:10.634Z,99.90
2019-03-23T22:53:41.287Z,99.90
2019-03-23T22:56:13.728Z,99.90
2019-03-23T22:58:46.279Z,99.90
2019-03-23T23:01:17.239Z,99.90
2019-03-23T23:03:47.657Z,99.90
2019-03-23T23:06:37.226Z,99.90
2019-03-23T23:09:09.651Z,99.90
2019-03-23T23:11:40.182Z,99.90
2019-03-23T23:14:10.558Z,99.90
2019-03-23T23:16:41.258Z,99.90
2019-03-23T23:19:11.662Z,99.90
2019-03-23T23:21:44.993Z,99.90
2019-03-23T23:24:15.391Z,99.90
2019-03-23T23:26:45.798Z,99.90
2019-03-23T23:29:16.232Z,99.90
2019-03-23T23:31:46.686Z,99.90
2019-03-23T23:34:17.129Z,99.90
2019-03-23T23:36:47.580Z,99.90
2019-03-23T23:39:18.264Z,99.90
2019-03-23T23:41:49.522Z,99.90
2019-03-23T23:44:20.202Z,99.90
2019-03-23T23:47:09.443Z,99.90
2019-03-23T23:49:40.459Z,99.90
2019-03-23T23:52:10.858Z,99.90
2019-03-23T23:54:41.270Z,99.90
2019-03-23T23:57:11.670Z,99.90
2019-03-23T23:59:42.070Z,99.90
